Time;durP1;ratioP1;P1;durP2;ratioP2;P2;SDS_P1;SDS_P2;PMS_P1;PMS_P2;Temp;Humidity;BMP_temperature;BMP_pressure;BME280_temperature;BME280_humidity;BME280_pressure;Samples;Min_cycle;Max_cycle;Signal;HPM_P1;HPM_P2
2022/02/13 00:01:40;;;;;;;;;;;1.70;99.90;;;;;;5034473;28;19933;-51
2022/02/13 00:04:07;;;;;;;;;;;1.60;99.90;;;;;;5036681;28;19933;-52
2022/02/13 00:06:35;;;;;;;;;;;1.60;99.90;;;;;;5036282;28;20387;-52
2022/02/13 00:09:01;;;;;;;;;;;1.60;99.90;;;;;;5065545;22;19970;-50
2022/02/13 00:11:28;;;;;;;;;;;1.70;99.90;;;;;;5073753;28;19936;-46
2022/02/13 00:13:55;;;;;;;;;;;1.80;99.90;;;;;;5072154;28;20360;-48
2022/02/13 00:16:22;;;;;;;;;;;1.90;99.90;;;;;;5073264;28;20351;-48
2022/02/13 00:18:49;;;;;;;;;;;1.90;99.90;;;;;;5072521;28;19928;-47
2022/02/13 00:21:15;;;;;;;;;;;2.00;99.90;;;;;;5072192;28;20339;-49
2022/02/13 00:23:43;;;;;;;;;;;1.90;99.90;;;;;;5067450;28;20357;-48
2022/02/13 00:26:10;;;;;;;;;;;1.90;99.90;;;;;;5066429;28;19951;-49
2022/02/13 00:28:37;;;;;;;;;;;1.80;99.90;;;;;;5070719;28;19925;-47
2022/02/13 00:31:04;;;;;;;;;;;1.80;99.90;;;;;;5072536;28;20001;-48
2022/02/13 00:33:32;;;;;;;;;;;1.80;99.90;;;;;;5071347;28;20455;-48
2022/02/13 00:35:59;;;;;;;;;;;1.80;99.90;;;;;;5065163;28;19939;-48
2022/02/13 00:38:25;;;;;;;;;;;1.80;99.90;;;;;;5072175;28;19970;-48
2022/02/13 00:40:54;;;;;;;;;;;1.70;99.90;;;;;;5065146;28;19947;-48
2022/02/13 00:43:20;;;;;;;;;;;1.80;99.90;;;;;;5070791;28;19924;-49
2022/02/13 00:45:47;;;;;;;;;;;1.70;99.90;;;;;;5067850;28;19970;-47
2022/02/13 00:48:14;;;;;;;;;;;1.70;99.90;;;;;;5071741;28;19924;-47
2022/02/13 00:50:42;;;;;;;;;;;1.80;99.90;;;;;;5071572;28;20005;-48
2022/02/13 00:53:09;;;;;;;;;;;1.90;99.90;;;;;;5068826;28;20094;-48
2022/02/13 00:55:36;;;;;;;;;;;2.00;99.90;;;;;;5072879;28;20394;-48
2022/02/13 00:58:04;;;;;;;;;;;2.00;99.90;;;;;;5064567;28;20460;-48
2022/02/13 01:00:31;;;;;;;;;;;2.00;99.90;;;;;;5064737;28;19994;-47
2022/02/13 01:02:57;;;;;;;;;;;2.10;99.90;;;;;;5063958;28;19986;-48
2022/02/13 01:05:24;;;;;;;;;;;2.10;99.90;;;;;;5071897;28;19929;-48
2022/02/13 01:07:51;;;;;;;;;;;2.00;99.90;;;;;;5058692;28;19925;-47
2022/02/13 01:10:18;;;;;;;;;;;2.00;99.90;;;;;;5065846;28;19932;-48
2022/02/13 01:12:45;;;;;;;;;;;2.00;99.90;;;;;;5065819;28;19924;-48
2022/02/13 01:15:13;;;;;;;;;;;1.80;99.90;;;;;;5063118;28;20029;-49
2022/02/13 01:17:41;;;;;;;;;;;1.70;99.90;;;;;;5069150;28;19932;-48
2022/02/13 01:20:08;;;;;;;;;;;1.60;99.90;;;;;;5064316;28;19990;-48
2022/02/13 01:22:35;;;;;;;;;;;1.50;99.90;;;;;;5066885;28;19928;-48
2022/02/13 01:25:04;;;;;;;;;;;1.60;99.90;;;;;;5071641;28;19985;-47
2022/02/13 01:27:30;;;;;;;;;;;1.60;99.90;;;;;;5062334;28;19928;-49
2022/02/13 01:29:57;;;;;;;;;;;1.40;99.90;;;;;;5066755;28;19990;-48
2022/02/13 01:32:26;;;;;;;;;;;1.30;99.90;;;;;;5063558;28;20404;-49
2022/02/13 01:34:52;;;;;;;;;;;1.20;99.90;;;;;;5063926;28;20351;-48
2022/02/13 01:37:19;;;;;;;;;;;1.30;99.90;;;;;;5069985;28;20378;-47
2022/02/13 01:39:47;;;;;;;;;;;1.30;99.90;;;;;;5062777;28;20432;-48
2022/02/13 01:42:13;;;;;;;;;;;1.30;99.90;;;;;;5062166;28;20441;-47
2022/02/13 01:44:40;;;;;;;;;;;1.40;99.90;;;;;;5065665;28;19928;-47
2022/02/13 01:47:08;;;;;;;;;;;1.40;99.90;;;;;;5065250;28;19985;-48
2022/02/13 01:49:36;;;;;;;;;;;1.50;99.90;;;;;;5071929;28;19928;-47
2022/02/13 01:52:04;;;;;;;;;;;1.30;99.90;;;;;;5071675;28;19932;-48
2022/02/13 01:54:31;;;;;;;;;;;1.10;99.90;;;;;;5071464;28;19985;-47
2022/02/13 01:56:58;;;;;;;;;;;0.90;99.90;;;;;;5071764;28;20384;-47
2022/02/13 01:59:25;;;;;;;;;;;0.70;99.90;;;;;;5071737;28;19928;-47
2022/02/13 02:01:52;;;;;;;;;;;0.60;99.90;;;;;;5068347;28;19924;-48
2022/02/13 02:04:19;;;;;;;;;;;0.50;99.90;;;;;;5071965;28;19928;-48
2022/02/13 02:06:47;;;;;;;;;;;0.30;99.90;;;;;;5071201;28;19925;-47
2022/02/13 02:09:14;;;;;;;;;;;0.30;99.90;;;;;;5070078;28;19925;-48
2022/02/13 02:11:41;;;;;;;;;;;0.40;99.90;;;;;;5065616;28;19990;-48
2022/02/13 02:14:08;;;;;;;;;;;0.40;99.90;;;;;;5070283;28;19925;-49
2022/02/13 02:16:35;;;;;;;;;;;0.20;99.90;;;;;;5070502;28;19929;-48
2022/02/13 02:19:02;;;;;;;;;;;0.10;99.90;;;;;;5070592;28;19924;-49
2022/02/13 02:21:29;;;;;;;;;;;0.00;99.90;;;;;;5054516;28;19925;-48
2022/02/13 02:23:57;;;;;;;;;;;-0.10;99.90;;;;;;5068314;28;19924;-48
2022/02/13 02:26:24;;;;;;;;;;;-0.20;99.90;;;;;;5071670;28;19970;-48
2022/02/13 02:28:51;;;;;;;;;;;-0.10;99.90;;;;;;5070399;28;20451;-47
2022/02/13 02:31:17;;;;;;;;;;;-0.10;99.90;;;;;;5070970;28;19924;-48
2022/02/13 02:33:44;;;;;;;;;;;-0.10;99.90;;;;;;5056736;28;19929;-47
2022/02/13 02:36:14;;;;;;;;;;;-0.20;99.90;;;;;;5051567;28;20003;-47
2022/02/13 02:38:41;;;;;;;;;;;-0.20;99.90;;;;;;5051276;28;19937;-48
2022/02/13 02:41:12;;;;;;;;;;;-0.40;99.90;;;;;;5050551;28;21686;-48
2022/02/13 02:43:39;;;;;;;;;;;-0.30;99.90;;;;;;5063726;28;19928;-48
2022/02/13 02:46:06;;;;;;;;;;;-0.40;99.90;;;;;;5069909;28;20410;-48
2022/02/13 02:48:33;;;;;;;;;;;-0.50;99.90;;;;;;5070599;28;19978;-47
2022/02/13 02:51:00;;;;;;;;;;;-0.50;99.90;;;;;;5071558;28;20047;-47
2022/02/13 02:53:27;;;;;;;;;;;-0.50;99.90;;;;;;5059056;28;19925;-47
2022/02/13 02:55:53;;;;;;;;;;;-0.50;99.90;;;;;;5051401;28;19925;-48
2022/02/13 02:58:23;;;;;;;;;;;-0.50;99.90;;;;;;5052455;28;19940;-50
2022/02/13 03:00:50;;;;;;;;;;;-0.30;99.90;;;;;;5052521;28;19924;-48
2022/02/13 03:03:17;;;;;;;;;;;-0.30;99.90;;;;;;5061457;28;19924;-49
2022/02/13 03:05:44;;;;;;;;;;;-0.50;99.90;;;;;;5071066;28;19924;-48
2022/02/13 03:08:11;;;;;;;;;;;-0.40;99.90;;;;;;5071042;28;19928;-47
2022/02/13 03:10:37;;;;;;;;;;;-0.40;99.90;;;;;;5071201;28;19977;-48
2022/02/13 03:13:05;;;;;;;;;;;-0.50;99.90;;;;;;5063565;28;19945;-47
2022/02/13 03:15:33;;;;;;;;;;;-0.40;99.90;;;;;;5064511;28;19924;-48
2022/02/13 03:18:00;;;;;;;;;;;-0.50;99.90;;;;;;5071087;28;19928;-47
2022/02/13 03:20:27;;;;;;;;;;;-0.60;99.90;;;;;;5070936;28;19925;-47
2022/02/13 03:22:54;;;;;;;;;;;-0.90;99.90;;;;;;5064306;28;20020;-47
2022/02/13 03:25:21;;;;;;;;;;;-0.90;99.90;;;;;;5051263;28;19928;-47
2022/02/13 03:27:47;;;;;;;;;;;-1.10;99.90;;;;;;5052389;28;19925;-47
2022/02/13 03:30:14;;;;;;;;;;;-1.20;99.90;;;;;;5051092;28;19928;-48
2022/02/13 03:32:42;;;;;;;;;;;-1.30;99.90;;;;;;5059640;28;19928;-47
2022/02/13 03:35:10;;;;;;;;;;;-1.30;99.90;;;;;;5070040;28;19932;-48
2022/02/13 03:37:37;;;;;;;;;;;-1.40;99.90;;;;;;5054888;28;19971;-48
2022/02/13 03:40:04;;;;;;;;;;;-1.50;99.90;;;;;;5054609;28;19925;-47
2022/02/13 03:42:31;;;;;;;;;;;-1.50;99.90;;;;;;5062796;28;19944;-48
2022/02/13 03:44:58;;;;;;;;;;;-1.40;99.90;;;;;;5054831;28;19925;-48
2022/02/13 03:47:25;;;;;;;;;;;-1.30;99.90;;;;;;5054765;28;19928;-47
2022/02/13 03:49:53;;;;;;;;;;;-1.30;99.90;;;;;;5055435;28;19931;-48
2022/02/13 03:52:21;;;;;;;;;;;-1.40;99.90;;;;;;5055584;28;20364;-47
2022/02/13 03:54:47;;;;;;;;;;;-1.50;99.90;;;;;;5073274;28;19924;-48
2022/02/13 03:57:15;;;;;;;;;;;-1.50;99.90;;;;;;5055615;28;20391;-47
2022/02/13 03:59:42;;;;;;;;;;;-1.50;99.90;;;;;;5054235;28;19929;-47
2022/02/13 04:02:08;;;;;;;;;;;-1.60;99.90;;;;;;5054314;28;19924;-47
2022/02/13 04:04:35;;;;;;;;;;;-1.60;99.90;;;;;;5073471;28;19985;-47
2022/02/13 04:07:04;;;;;;;;;;;-1.50;99.90;;;;;;5074515;28;19928;-48
2022/02/13 04:09:31;;;;;;;;;;;-1.30;99.90;;;;;;5063155;28;20355;-48
2022/02/13 04:11:58;;;;;;;;;;;-1.30;99.90;;;;;;5055593;28;19929;-46
2022/02/13 04:14:24;;;;;;;;;;;-1.30;99.90;;;;;;5072218;28;20397;-48
2022/02/13 04:16:51;;;;;;;;;;;-1.20;99.90;;;;;;5074336;28;20539;-48
2022/02/13 04:19:18;;;;;;;;;;;-0.90;99.90;;;;;;5073776;28;20436;-47
2022/02/13 04:21:45;;;;;;;;;;;-0.60;99.90;;;;;;5073485;28;19925;-48
2022/02/13 04:24:13;;;;;;;;;;;-0.60;99.90;;;;;;5068846;28;19936;-47
2022/02/13 04:26:40;;;;;;;;;;;-0.60;99.90;;;;;;5073938;28;19924;-47
2022/02/13 04:29:07;;;;;;;;;;;-0.50;99.90;;;;;;5073737;28;20437;-47
2022/02/13 04:31:34;;;;;;;;;;;-0.40;99.90;;;;;;5074038;28;20216;-47
2022/02/13 04:34:00;;;;;;;;;;;-0.40;99.90;;;;;;5054530;28;19986;-47
2022/02/13 04:36:27;;;;;;;;;;;-0.40;99.90;;;;;;5054512;28;19925;-48
2022/02/13 04:38:54;;;;;;;;;;;-0.40;99.90;;;;;;5054670;28;19987;-47
2022/02/13 04:41:22;;;;;;;;;;;-0.40;99.90;;;;;;5058171;28;19925;-47
2022/02/13 04:43:49;;;;;;;;;;;-0.40;99.90;;;;;;5070184;28;20022;-48
2022/02/13 04:46:16;;;;;;;;;;;-0.10;99.90;;;;;;5073614;28;19924;-48
2022/02/13 04:48:42;;;;;;;;;;;0.00;99.90;;;;;;5084004;28;19928;-47
2022/02/13 04:51:10;;;;;;;;;;;0.10;99.90;;;;;;5075214;28;20436;-47
2022/02/13 04:53:36;;;;;;;;;;;-0.10;99.90;;;;;;5072958;28;20406;-51
2022/02/13 04:56:04;;;;;;;;;;;-0.20;99.90;;;;;;5062685;28;19925;-50
2022/02/13 04:58:32;;;;;;;;;;;-0.10;99.90;;;;;;5053406;28;19947;-49
2022/02/13 05:00:59;;;;;;;;;;;-0.20;99.90;;;;;;5053518;28;19978;-46
2022/02/13 05:03:26;;;;;;;;;;;-0.20;99.90;;;;;;5053535;28;19980;-48
2022/02/13 05:05:53;;;;;;;;;;;-0.30;99.90;;;;;;5064322;28;19924;-47
2022/02/13 05:08:20;;;;;;;;;;;-0.20;99.90;;;;;;5054903;28;19925;-48
2022/02/13 05:10:47;;;;;;;;;;;-0.10;99.90;;;;;;5062833;28;19986;-46
2022/02/13 05:13:14;;;;;;;;;;;-0.10;99.90;;;;;;5073090;28;19985;-47
2022/02/13 05:15:42;;;;;;;;;;;-0.10;99.90;;;;;;5063677;28;20303;-46
2022/02/13 05:18:09;;;;;;;;;;;-0.20;99.90;;;;;;5052958;28;19979;-46
2022/02/13 05:20:36;;;;;;;;;;;-0.20;99.90;;;;;;5053012;28;20409;-48
2022/02/13 05:23:03;;;;;;;;;;;-0.10;99.90;;;;;;5052938;28;19931;-47
2022/02/13 05:25:30;;;;;;;;;;;0.00;99.90;;;;;;5061314;28;19929;-48
2022/02/13 05:27:57;;;;;;;;;;;-0.20;99.90;;;;;;5072934;28;19925;-47
2022/02/13 05:30:24;;;;;;;;;;;-0.20;99.90;;;;;;5072570;28;19970;-47
2022/02/13 05:32:52;;;;;;;;;;;-0.40;99.90;;;;;;5073028;28;19929;-47
2022/02/13 05:35:19;;;;;;;;;;;-0.50;99.90;;;;;;5071973;28;19925;-47
2022/02/13 05:37:48;;;;;;;;;;;-0.50;99.90;;;;;;5072509;28;19928;-48
2022/02/13 05:40:15;;;;;;;;;;;-0.60;99.90;;;;;;5063264;28;19948;-48
2022/02/13 05:42:42;;;;;;;;;;;-0.60;99.90;;;;;;5062029;28;19928;-48
2022/02/13 05:45:09;;;;;;;;;;;-0.60;99.90;;;;;;5072244;28;19936;-49
2022/02/13 05:47:37;;;;;;;;;;;-0.50;99.90;;;;;;5070470;28;19924;-49
2022/02/13 05:50:05;;;;;;;;;;;-0.40;99.90;;;;;;5058927;28;19970;-49
2022/02/13 05:52:32;;;;;;;;;;;-0.30;99.90;;;;;;5058153;28;19932;-50
2022/02/13 05:54:59;;;;;;;;;;;-0.50;99.90;;;;;;5059173;28;19932;-49
2022/02/13 05:57:25;;;;;;;;;;;-0.60;99.90;;;;;;5064871;28;19932;-50
2022/02/13 05:59:52;;;;;;;;;;;-0.40;99.90;;;;;;5052097;28;20280;-49
2022/02/13 06:02:19;;;;;;;;;;;-0.40;99.90;;;;;;5056317;28;19994;-50
2022/02/13 06:04:46;;;;;;;;;;;-0.30;99.90;;;;;;5068874;28;19932;-49
2022/02/13 06:07:15;;;;;;;;;;;-0.30;99.90;;;;;;5066068;28;19925;-50
2022/02/13 06:09:42;;;;;;;;;;;-0.20;99.90;;;;;;5083621;22;20014;-49
2022/02/13 06:12:09;;;;;;;;;;;0.10;99.90;;;;;;5055237;28;19929;-50
2022/02/13 06:14:36;;;;;;;;;;;0.10;99.90;;;;;;5075194;28;19925;-51
2022/02/13 06:17:03;;;;;;;;;;;0.10;99.90;;;;;;5074795;28;19970;-52
2022/02/13 06:19:29;;;;;;;;;;;0.20;99.90;;;;;;5074447;28;19943;-49
2022/02/13 06:21:56;;;;;;;;;;;0.20;99.90;;;;;;5073902;28;19925;-50
2022/02/13 06:24:25;;;;;;;;;;;0.10;99.90;;;;;;5074991;28;19931;-50
2022/02/13 06:26:51;;;;;;;;;;;0.00;99.90;;;;;;5074785;28;19977;-49
2022/02/13 06:29:18;;;;;;;;;;;-0.20;99.90;;;;;;5069961;28;19928;-50
2022/02/13 06:31:45;;;;;;;;;;;-0.30;99.90;;;;;;5073406;28;19978;-50
2022/02/13 06:34:12;;;;;;;;;;;-0.30;99.90;;;;;;5074696;28;19924;-50
2022/02/13 06:36:39;;;;;;;;;;;-0.30;99.90;;;;;;5065433;28;19933;-50
2022/02/13 06:39:06;;;;;;;;;;;-0.30;99.90;;;;;;5073041;28;20019;-51
2022/02/13 06:41:34;;;;;;;;;;;-0.30;99.90;;;;;;5074581;28;19929;-50
2022/02/13 06:44:01;;;;;;;;;;;-0.30;99.90;;;;;;5069863;28;19924;-51
2022/02/13 06:46:28;;;;;;;;;;;-0.30;99.90;;;;;;5073623;28;19932;-51
2022/02/13 06:48:55;;;;;;;;;;;-0.20;99.90;;;;;;5075413;28;19940;-51
2022/02/13 06:51:21;;;;;;;;;;;0.00;99.90;;;;;;5075390;28;19931;-50
2022/02/13 06:53:48;;;;;;;;;;;0.00;99.90;;;;;;5075764;28;19928;-50
2022/02/13 06:56:15;;;;;;;;;;;0.10;99.90;;;;;;5074286;28;20378;-51
2022/02/13 06:58:44;;;;;;;;;;;0.00;99.90;;;;;;5077818;28;19930;-49
2022/02/13 07:01:11;;;;;;;;;;;0.20;99.90;;;;;;5074583;28;20056;-51
2022/02/13 07:03:38;;;;;;;;;;;0.30;99.90;;;;;;5067448;28;19971;-51
2022/02/13 07:06:06;;;;;;;;;;;0.50;99.90;;;;;;5071640;28;20412;-50
2022/02/13 07:08:33;;;;;;;;;;;0.60;99.90;;;;;;5078592;28;19932;-51
2022/02/13 07:11:00;;;;;;;;;;;0.70;99.90;;;;;;5077910;28;20279;-50
2022/02/13 07:13:28;;;;;;;;;;;0.80;99.90;;;;;;5079494;28;19924;-53
2022/02/13 07:15:56;;;;;;;;;;;0.90;99.90;;;;;;5073851;28;20333;-51
2022/02/13 07:18:23;;;;;;;;;;;1.30;99.90;;;;;;5062848;28;19928;-51
2022/02/13 07:20:52;;;;;;;;;;;2.00;99.90;;;;;;5080271;28;19924;-51
2022/02/13 07:23:22;;;;;;;;;;;2.70;99.90;;;;;;5080209;28;19935;-50
2022/02/13 07:25:50;;;;;;;;;;;2.90;99.90;;;;;;5088164;28;19928;-51
2022/02/13 07:31:02;;;;;;;;;;;2.00;99.90;;;;;;5083768;28;19943;-50
2022/02/13 07:33:29;;;;;;;;;;;1.60;99.90;;;;;;5085585;28;19925;-50
2022/02/13 07:35:56;;;;;;;;;;;1.70;99.90;;;;;;5077092;28;19924;-50
2022/02/13 07:38:23;;;;;;;;;;;1.80;99.90;;;;;;5076667;28;19924;-50
2022/02/13 07:40:50;;;;;;;;;;;1.70;99.90;;;;;;5073232;28;19925;-55
2022/02/13 07:43:16;;;;;;;;;;;1.80;99.90;;;;;;5056870;28;19924;-50
2022/02/13 07:45:43;;;;;;;;;;;2.00;99.90;;;;;;5056197;28;20303;-50
2022/02/13 07:48:12;;;;;;;;;;;2.20;99.90;;;;;;5069752;28;20004;-50
2022/02/13 07:50:38;;;;;;;;;;;2.70;99.90;;;;;;5075421;28;19963;-50
2022/02/13 07:53:05;;;;;;;;;;;3.60;99.90;;;;;;5074221;28;19932;-50
2022/02/13 07:55:33;;;;;;;;;;;4.60;99.70;;;;;;5076024;28;19954;-51
2022/02/13 07:58:00;;;;;;;;;;;4.50;98.90;;;;;;5076486;28;19932;-49
2022/02/13 08:00:27;;;;;;;;;;;5.10;98.20;;;;;;5074626;28;19928;-51
2022/02/13 08:02:53;;;;;;;;;;;5.90;96.20;;;;;;5068597;28;20436;-51
2022/02/13 08:05:22;;;;;;;;;;;6.50;94.50;;;;;;5060107;28;19925;-52
2022/02/13 08:07:50;;;;;;;;;;;6.80;93.80;;;;;;5064007;28;19933;-50
2022/02/13 08:10:18;;;;;;;;;;;6.10;93.30;;;;;;5069453;28;19924;-51
2022/02/13 08:12:45;;;;;;;;;;;5.80;93.20;;;;;;5067452;28;19928;-51
2022/02/13 08:15:11;;;;;;;;;;;5.70;93.60;;;;;;5074991;28;20345;-52
2022/02/13 08:17:38;;;;;;;;;;;6.50;93.30;;;;;;5074011;28;19932;-52
2022/02/13 08:20:07;;;;;;;;;;;6.60;91.80;;;;;;5075107;28;19924;-52
2022/02/13 08:22:36;;;;;;;;;;;7.00;91.50;;;;;;5074273;28;19924;-52
2022/02/13 08:25:04;;;;;;;;;;;7.80;90.20;;;;;;5075129;28;19924;-52
2022/02/13 08:27:30;;;;;;;;;;;7.80;89.40;;;;;;5075613;28;19928;-51
2022/02/13 08:29:57;;;;;;;;;;;8.00;90.10;;;;;;5075202;28;20383;-52
2022/02/13 08:32:24;;;;;;;;;;;8.20;87.60;;;;;;5074122;28;20402;-51
2022/02/13 08:34:53;;;;;;;;;;;7.60;89.40;;;;;;5075173;28;19924;-51
2022/02/13 08:37:20;;;;;;;;;;;7.00;87.40;;;;;;5074779;28;19982;-51
2022/02/13 08:39:48;;;;;;;;;;;7.00;87.40;;;;;;5074489;28;20483;-51
2022/02/13 08:42:15;;;;;;;;;;;6.80;87.40;;;;;;5074954;28;19928;-52
2022/02/13 08:44:41;;;;;;;;;;;6.50;87.60;;;;;;5074640;28;20345;-52
2022/02/13 08:47:08;;;;;;;;;;;7.00;87.80;;;;;;5075400;28;20321;-52
2022/02/13 08:49:35;;;;;;;;;;;7.30;86.70;;;;;;5075542;28;19928;-52
2022/02/13 08:52:02;;;;;;;;;;;7.70;86.00;;;;;;5077529;28;19928;-52
2022/02/13 08:54:28;;;;;;;;;;;8.10;85.40;;;;;;5075245;28;19928;-50
2022/02/13 08:56:57;;;;;;;;;;;8.80;84.50;;;;;;5068279;28;19924;-51
2022/02/13 08:59:23;;;;;;;;;;;9.10;82.60;;;;;;5067111;28;19928;-53
2022/02/13 09:01:50;;;;;;;;;;;9.90;80.10;;;;;;5064100;28;19998;-51
2022/02/13 09:04:17;;;;;;;;;;;10.20;76.00;;;;;;5071695;28;19949;-52
2022/02/13 09:06:44;;;;;;;;;;;10.10;78.20;;;;;;5055409;28;20444;-51
2022/02/13 09:09:12;;;;;;;;;;;10.60;76.30;;;;;;5068133;28;19924;-51
2022/02/13 09:11:39;;;;;;;;;;;11.80;73.20;;;;;;5078696;28;19963;-51
2022/02/13 09:14:09;;;;;;;;;;;12.60;69.30;;;;;;5073512;28;19932;-53
2022/02/13 09:16:36;;;;;;;;;;;14.20;67.70;;;;;;5073085;28;19931;-51
2022/02/13 09:19:03;;;;;;;;;;;15.70;61.20;;;;;;5072592;28;20394;-50
2022/02/13 09:21:30;;;;;;;;;;;16.60;59.10;;;;;;5072850;28;20340;-50
2022/02/13 09:23:57;;;;;;;;;;;15.60;56.20;;;;;;5073002;28;19924;-50
2022/02/13 09:26:24;;;;;;;;;;;16.40;57.50;;;;;;5072721;28;19928;-51
2022/02/13 09:28:51;;;;;;;;;;;17.10;54.60;;;;;;5070598;28;19928;-51
2022/02/13 09:31:19;;;;;;;;;;;17.40;51.10;;;;;;5072263;28;19924;-51
2022/02/13 09:33:46;;;;;;;;;;;17.30;51.90;;;;;;5072350;28;19928;-51
2022/02/13 09:36:13;;;;;;;;;;;15.30;50.50;;;;;;5068261;28;20451;-51
2022/02/13 09:38:40;;;;;;;;;;;15.20;50.00;;;;;;5070661;28;19985;-51
2022/02/13 09:41:07;;;;;;;;;;;13.80;50.60;;;;;;5064547;28;19928;-51
2022/02/13 09:43:36;;;;;;;;;;;13.60;51.50;;;;;;5067334;28;19924;-50
2022/02/13 09:46:03;;;;;;;;;;;14.40;51.10;;;;;;5072294;28;19994;-51
2022/02/13 09:48:31;;;;;;;;;;;14.60;51.20;;;;;;5052439;28;19951;-50
2022/02/13 09:50:59;;;;;;;;;;;14.30;52.10;;;;;;5068345;28;19928;-51
2022/02/13 09:53:34;;;;;;;;;;;15.10;52.20;;;;;;5055776;28;19943;-51
2022/02/13 09:56:01;;;;;;;;;;;14.80;51.50;;;;;;5062819;28;19930;-52
2022/02/13 09:58:29;;;;;;;;;;;15.70;49.60;;;;;;5071811;28;19924;-53
2022/02/13 10:00:57;;;;;;;;;;;14.30;50.60;;;;;;5068850;28;19924;-52
2022/02/13 10:03:25;;;;;;;;;;;13.60;51.90;;;;;;5066765;28;19924;-50
2022/02/13 10:05:54;;;;;;;;;;;13.40;50.90;;;;;;5062877;28;19987;-50
2022/02/13 10:08:27;;;;;;;;;;;14.10;51.50;;;;;;5070458;28;20442;-53
2022/02/13 10:11:07;;;;;;;;;;;14.30;50.60;;;;;;5067810;28;20070;-55
2022/02/13 10:13:41;;;;;;;;;;;13.80;50.80;;;;;;5070169;28;19958;-55
2022/02/13 10:16:12;;;;;;;;;;;14.10;51.40;;;;;;5068128;28;20453;-54
2022/02/13 10:18:43;;;;;;;;;;;15.00;51.70;;;;;;5068603;28;19968;-54
2022/02/13 10:21:12;;;;;;;;;;;15.60;50.00;;;;;;5069454;28;20477;-54
2022/02/13 10:23:38;;;;;;;;;;;14.00;50.50;;;;;;5069751;28;19935;-54
2022/02/13 10:26:19;;;;;;;;;;;13.80;49.60;;;;;;5071452;28;19925;-53
2022/02/13 10:28:54;;;;;;;;;;;14.10;50.30;;;;;;5066837;28;19924;-55
2022/02/13 10:31:22;;;;;;;;;;;14.10;49.20;;;;;;5067720;28;19935;-55
2022/02/13 10:33:57;;;;;;;;;;;13.20;50.20;;;;;;5069993;28;20000;-54
2022/02/13 10:36:25;;;;;;;;;;;13.10;51.20;;;;;;5071921;28;20015;-53
2022/02/13 10:38:53;;;;;;;;;;;13.80;52.50;;;;;;5067888;28;19943;-53
2022/02/13 10:41:20;;;;;;;;;;;14.50;50.80;;;;;;5070437;28;20293;-56
2022/02/13 10:43:51;;;;;;;;;;;14.70;50.90;;;;;;5069569;28;19925;-54
2022/02/13 10:46:18;;;;;;;;;;;14.50;48.30;;;;;;5073368;28;19969;-53
2022/02/13 10:48:45;;;;;;;;;;;13.10;48.60;;;;;;5071520;28;19924;-55
2022/02/13 10:51:12;;;;;;;;;;;13.90;50.30;;;;;;5078498;28;20298;-53
2022/02/13 10:53:41;;;;;;;;;;;14.70;48.50;;;;;;5068381;28;19932;-55
2022/02/13 10:56:08;;;;;;;;;;;14.90;47.70;;;;;;5077522;28;20343;-55
2022/02/13 10:58:35;;;;;;;;;;;14.70;48.00;;;;;;5073048;28;19924;-55
2022/02/13 11:01:02;;;;;;;;;;;13.30;48.30;;;;;;5070954;28;19958;-55
2022/02/13 11:03:31;;;;;;;;;;;12.10;51.70;;;;;;5071007;28;20435;-53
2022/02/13 11:05:59;;;;;;;;;;;11.50;52.70;;;;;;5089888;28;19945;-53
2022/02/13 11:08:30;;;;;;;;;;;10.70;53.50;;;;;;5067735;28;19924;-53
2022/02/13 11:10:59;;;;;;;;;;;10.40;56.00;;;;;;5065842;28;19924;-53
2022/02/13 11:13:26;;;;;;;;;;;10.10;54.60;;;;;;5069059;28;19924;-55
2022/02/13 11:15:53;;;;;;;;;;;9.80;54.20;;;;;;5075506;28;19924;-55
2022/02/13 11:18:22;;;;;;;;;;;9.50;55.40;;;;;;5068887;28;19933;-56
2022/02/13 11:20:50;;;;;;;;;;;9.40;58.90;;;;;;5072055;28;20023;-55
2022/02/13 11:23:21;;;;;;;;;;;9.60;57.80;;;;;;5072166;28;19929;-56
2022/02/13 11:25:49;;;;;;;;;;;9.50;55.30;;;;;;5072324;28;19925;-54
2022/02/13 11:28:19;;;;;;;;;;;9.70;57.80;;;;;;5071730;28;19925;-52
2022/02/13 11:30:49;;;;;;;;;;;9.60;53.10;;;;;;5072448;28;19932;-54
2022/02/13 11:33:35;;;;;;;;;;;9.60;52.90;;;;;;5072273;28;19930;-53
2022/02/13 11:36:04;;;;;;;;;;;9.90;55.30;;;;;;5071998;28;20023;-53
2022/02/13 11:38:51;;;;;;;;;;;9.90;53.60;;;;;;5058453;28;19928;-54
2022/02/13 11:41:19;;;;;;;;;;;9.90;55.80;;;;;;5058333;28;19990;-53
2022/02/13 11:44:02;;;;;;;;;;;10.00;53.30;;;;;;5080068;28;20287;-53
2022/02/13 11:46:48;;;;;;;;;;;10.00;54.40;;;;;;5070432;28;19924;-52
2022/02/13 11:49:15;;;;;;;;;;;9.90;56.10;;;;;;5071986;28;19928;-53
2022/02/13 11:52:00;;;;;;;;;;;10.10;54.70;;;;;;5072852;28;20325;-53
2022/02/13 11:54:47;;;;;;;;;;;10.30;52.60;;;;;;5076058;28;19932;-54
2022/02/13 11:57:19;;;;;;;;;;;10.40;54.30;;;;;;5075842;28;20011;-52
2022/02/13 11:59:51;;;;;;;;;;;10.40;54.60;;;;;;5075355;28;20390;-53
2022/02/13 12:02:18;;;;;;;;;;;10.40;54.50;;;;;;5074673;28;20294;-52
2022/02/13 12:05:12;;;;;;;;;;;10.30;53.80;;;;;;5064480;28;19932;-53
2022/02/13 12:07:54;;;;;;;;;;;10.30;56.40;;;;;;5072544;28;19932;-53
2022/02/13 12:10:22;;;;;;;;;;;10.30;54.60;;;;;;5071940;28;19940;-53
2022/02/13 12:12:49;;;;;;;;;;;10.50;55.40;;;;;;5097356;22;20015;-50
2022/02/13 12:15:17;;;;;;;;;;;10.50;56.00;;;;;;5072100;28;19924;-51
2022/02/13 12:17:44;;;;;;;;;;;10.50;55.60;;;;;;5073732;28;19924;-50
2022/02/13 12:20:12;;;;;;;;;;;10.40;55.90;;;;;;5073788;28;19928;-50
2022/02/13 12:22:39;;;;;;;;;;;10.40;55.20;;;;;;5073860;28;19928;-51
2022/02/13 12:25:07;;;;;;;;;;;10.30;55.50;;;;;;5073044;28;19924;-51
2022/02/13 12:27:35;;;;;;;;;;;10.50;55.60;;;;;;5072222;28;19947;-54
2022/02/13 12:30:02;;;;;;;;;;;10.40;53.20;;;;;;5062844;28;19932;-51
2022/02/13 12:32:31;;;;;;;;;;;10.50;53.20;;;;;;5070327;28;19956;-52
2022/02/13 12:34:59;;;;;;;;;;;10.30;53.20;;;;;;5071658;28;19924;-51
2022/02/13 12:37:38;;;;;;;;;;;10.20;53.40;;;;;;5073596;28;20015;-51
2022/02/13 12:40:06;;;;;;;;;;;10.40;53.50;;;;;;5056659;28;20371;-50
2022/02/13 12:42:35;;;;;;;;;;;10.40;53.80;;;;;;5068491;28;20389;-50
2022/02/13 12:45:03;;;;;;;;;;;10.50;54.60;;;;;;5072579;28;19976;-52
2022/02/13 12:47:32;;;;;;;;;;;10.40;53.00;;;;;;5073324;28;19982;-51
2022/02/13 12:50:02;;;;;;;;;;;10.40;55.20;;;;;;5072977;28;20382;-52
2022/02/13 12:52:30;;;;;;;;;;;10.50;55.10;;;;;;5072164;28;19929;-50
2022/02/13 12:54:58;;;;;;;;;;;10.80;54.20;;;;;;5071051;28;19986;-50
2022/02/13 12:57:26;;;;;;;;;;;10.70;54.10;;;;;;5073139;28;20329;-51
2022/02/13 12:59:54;;;;;;;;;;;10.70;53.20;;;;;;5072432;28;19936;-49
2022/02/13 13:02:22;;;;;;;;;;;10.60;50.90;;;;;;5071556;28;19924;-51
2022/02/13 13:04:51;;;;;;;;;;;10.60;53.10;;;;;;5071191;28;19951;-50
2022/02/13 13:07:18;;;;;;;;;;;10.60;52.70;;;;;;5072775;28;19932;-50
2022/02/13 13:09:46;;;;;;;;;;;10.70;50.70;;;;;;5072258;28;20386;-51
2022/02/13 13:12:14;;;;;;;;;;;10.80;52.60;;;;;;5072641;28;19940;-51
2022/02/13 13:14:40;;;;;;;;;;;10.90;53.60;;;;;;5069299;28;19924;-51
2022/02/13 13:17:08;;;;;;;;;;;10.90;55.10;;;;;;5069645;28;19928;-51
2022/02/13 13:19:38;;;;;;;;;;;10.90;51.50;;;;;;5064597;28;19936;-51
2022/02/13 13:22:18;;;;;;;;;;;11.00;52.20;;;;;;5072109;28;19929;-52
2022/02/13 13:24:45;;;;;;;;;;;11.00;53.60;;;;;;5072226;28;20039;-52
2022/02/13 13:27:17;;;;;;;;;;;10.80;52.50;;;;;;5072817;28;19975;-50
2022/02/13 13:29:45;;;;;;;;;;;10.80;52.30;;;;;;5071556;28;20314;-51
2022/02/13 13:32:13;;;;;;;;;;;10.80;52.00;;;;;;5072004;28;19931;-51
2022/02/13 13:34:48;;;;;;;;;;;10.80;51.50;;;;;;5072744;28;20015;-51
2022/02/13 13:37:30;;;;;;;;;;;10.90;50.50;;;;;;5072015;28;20344;-50
2022/02/13 13:40:14;;;;;;;;;;;10.80;52.60;;;;;;5071283;28;19982;-52
2022/02/13 13:42:42;;;;;;;;;;;10.80;51.80;;;;;;5069274;28;20401;-52
2022/02/13 13:45:10;;;;;;;;;;;10.70;52.40;;;;;;5071515;28;20154;-51
2022/02/13 13:47:38;;;;;;;;;;;10.70;49.70;;;;;;5071604;28;19925;-51
2022/02/13 13:50:05;;;;;;;;;;;10.70;51.80;;;;;;5071742;28;20360;-53
2022/02/13 13:52:33;;;;;;;;;;;10.80;50.90;;;;;;5071158;28;19932;-50
2022/02/13 13:55:00;;;;;;;;;;;10.80;50.20;;;;;;5072021;28;19990;-51
2022/02/13 13:57:27;;;;;;;;;;;10.60;49.80;;;;;;5071793;28;19977;-51
2022/02/13 13:59:53;;;;;;;;;;;10.70;51.30;;;;;;5070951;28;19924;-51
2022/02/13 14:02:21;;;;;;;;;;;10.60;49.30;;;;;;5070427;28;19939;-51
2022/02/13 14:04:48;;;;;;;;;;;10.70;51.90;;;;;;5071558;28;20350;-52
2022/02/13 14:07:15;;;;;;;;;;;10.70;51.70;;;;;;5071481;28;19963;-51
2022/02/13 14:09:43;;;;;;;;;;;10.80;53.40;;;;;;5071659;28;19928;-51
2022/02/13 14:12:12;;;;;;;;;;;10.90;52.10;;;;;;5070871;28;19924;-51
2022/02/13 14:14:39;;;;;;;;;;;10.90;50.60;;;;;;5071096;28;19932;-51
2022/02/13 14:17:06;;;;;;;;;;;10.80;52.90;;;;;;5070558;28;20398;-52
2022/02/13 14:19:32;;;;;;;;;;;10.90;66.80;;;;;;5071183;28;19928;-51
2022/02/13 14:21:59;;;;;;;;;;;11.00;80.70;;;;;;5071245;28;19977;-50
2022/02/13 14:24:26;;;;;;;;;;;10.90;86.30;;;;;;5071442;28;19955;-51
2022/02/13 14:26:54;;;;;;;;;;;10.80;88.70;;;;;;5071584;28;19978;-51
2022/02/13 14:29:21;;;;;;;;;;;10.60;90.50;;;;;;5071145;28;20494;-51